createdAt,value
2023-01-18T00:01:11.961Z,4.93
2023-01-18T00:03:42.934Z,4.93
2023-01-18T00:06:14.035Z,4.57
2023-01-18T00:08:47.043Z,5.25
2023-01-18T00:11:19.130Z,4.25
2023-01-18T00:13:50.311Z,5.05
2023-01-18T00:16:22.391Z,5.05
2023-01-18T00:18:57.867Z,5.22
2023-01-18T00:21:29.269Z,4.57
2023-01-18T00:24:02.149Z,4.75
2023-01-18T00:26:32.365Z,4.50
2023-01-18T00:29:02.728Z,5.03
2023-01-18T00:31:32.954Z,5.40
2023-01-18T00:34:03.180Z,5.07
2023-01-18T00:36:34.701Z,4.35
2023-01-18T00:39:08.928Z,5.82
2023-01-18T00:42:00.608Z,5.88
2023-01-18T00:44:28.508Z,5.45
2023-01-18T00:46:58.894Z,5.68
2023-01-18T00:49:29.222Z,4.97
2023-01-18T00:51:59.452Z,5.72
2023-01-18T00:54:32.310Z,6.20
2023-01-18T00:57:02.783Z,6.32
2023-01-18T00:59:33.229Z,3.90
2023-01-18T01:02:03.612Z,5.93
2023-01-18T01:04:46.779Z,6.35
2023-01-18T01:07:17.012Z,5.63
2023-01-18T01:09:50.010Z,5.53
2023-01-18T01:12:32.585Z,6.15
2023-01-18T01:15:15.228Z,5.43
2023-01-18T01:17:58.049Z,4.97
2023-01-18T01:20:41.887Z,5.00
2023-01-18T01:23:25.868Z,5.55
2023-01-18T01:26:11.862Z,5.55
2023-01-18T01:28:44.594Z,5.35
2023-01-18T01:31:16.611Z,4.95
2023-01-18T01:33:49.221Z,5.65
2023-01-18T01:36:21.057Z,5.30
2023-01-18T01:38:51.279Z,5.25
2023-01-18T01:41:28.091Z,5.97
2023-01-18T01:44:00.006Z,4.72
2023-01-18T01:46:52.411Z,5.72
2023-01-18T01:49:28.489Z,4.93
2023-01-18T01:52:04.422Z,5.47
2023-01-18T01:54:37.566Z,5.30
2023-01-18T01:57:15.442Z,5.87
2023-01-18T01:59:51.465Z,6.00
2023-01-18T02:02:22.182Z,6.00
2023-01-18T02:04:54.329Z,5.43
2023-01-18T02:07:26.425Z,5.97
2023-01-18T02:09:57.234Z,6.85
2023-01-18T02:12:31.742Z,6.55
2023-01-18T02:15:05.517Z,6.70
2023-01-18T02:17:57.640Z,5.50
2023-01-18T02:21:01.583Z,6.40
2023-01-18T02:23:46.348Z,6.18
2023-01-18T02:26:55.844Z,5.95
2023-01-18T02:29:41.770Z,5.32
2023-01-18T02:32:24.918Z,5.78
2023-01-18T02:35:03.184Z,5.95
2023-01-18T02:37:42.715Z,6.18
2023-01-18T02:40:22.362Z,5.93
2023-01-18T02:43:05.165Z,5.40
2023-01-18T02:46:03.183Z,6.00
2023-01-18T02:48:36.858Z,6.80
2023-01-18T02:51:07.677Z,5.72
2023-01-18T02:53:41.605Z,6.47
2023-01-18T02:56:16.046Z,5.93
2023-01-18T02:58:51.354Z,6.47
2023-01-18T03:01:30.743Z,5.97
2023-01-18T03:04:06.182Z,6.22
2023-01-18T03:06:36.895Z,6.47
2023-01-18T03:09:07.413Z,6.57
2023-01-18T03:11:46.146Z,6.38
2023-01-18T03:14:27.663Z,7.25
2023-01-18T03:17:08.075Z,7.20
2023-01-18T03:19:59.889Z,6.95
2023-01-18T03:22:48.861Z,6.07
2023-01-18T03:25:22.032Z,6.22
2023-01-18T03:28:07.597Z,5.80
2023-01-18T03:30:52.006Z,6.55
2023-01-18T03:33:40.125Z,6.38
2023-01-18T03:36:15.638Z,6.07
2023-01-18T03:38:49.864Z,6.40
2023-01-18T03:41:22.175Z,7.53
2023-01-18T03:43:55.386Z,6.82
2023-01-18T03:46:29.310Z,6.70
2023-01-18T03:49:03.060Z,6.82
2023-01-18T03:51:47.511Z,6.40
2023-01-18T03:56:57.262Z,6.10
2023-01-18T03:59:31.451Z,6.32
2023-01-18T04:02:01.927Z,6.03
2023-01-18T04:04:34.749Z,6.88
2023-01-18T04:07:05.045Z,6.88
2023-01-18T04:09:35.462Z,6.90
2023-01-18T04:12:13.976Z,7.47
2023-01-18T04:14:44.278Z,6.78
2023-01-18T04:17:14.523Z,7.35
2023-01-18T04:19:47.535Z,6.50
2023-01-18T04:22:17.827Z,6.57
2023-01-18T04:24:48.273Z,7.68
2023-01-18T04:27:18.535Z,6.30
2023-01-18T04:29:48.941Z,6.47
2023-01-18T04:32:19.203Z,6.72
2023-01-18T04:34:54.582Z,6.82
2023-01-18T04:37:34.065Z,6.33
2023-01-18T04:40:04.692Z,7.07
2023-01-18T04:42:35.532Z,7.68
2023-01-18T04:45:05.851Z,8.85
2023-01-18T04:47:36.052Z,7.43
2023-01-18T04:50:10.662Z,7.93
2023-01-18T04:52:41.032Z,8.27
2023-01-18T04:55:16.052Z,8.18
2023-01-18T04:57:47.025Z,7.35
2023-01-18T05:00:18.012Z,7.82
2023-01-18T05:02:48.525Z,7.40
2023-01-18T05:05:21.543Z,8.15
2023-01-18T05:07:52.077Z,7.95
2023-01-18T05:10:22.433Z,6.95
2023-01-18T05:12:52.762Z,8.27
2023-01-18T05:15:23.084Z,6.70
2023-01-18T05:17:53.501Z,6.90
2023-01-18T05:20:26.389Z,7.30
2023-01-18T05:22:57.106Z,8.30
2023-01-18T05:25:29.747Z,7.88
2023-01-18T05:28:02.864Z,8.18
2023-01-18T05:30:33.174Z,7.82
2023-01-18T05:33:05.190Z,8.10
2023-01-18T05:35:38.509Z,8.90
2023-01-18T05:38:09.065Z,8.73
2023-01-18T05:40:39.244Z,8.57
2023-01-18T05:43:09.580Z,9.40
2023-01-18T05:45:39.838Z,10.35
2023-01-18T05:48:10.153Z,10.18
2023-01-18T05:50:46.098Z,9.32
2023-01-18T05:53:18.010Z,8.35
2023-01-18T05:55:56.767Z,8.35
2023-01-18T05:58:27.329Z,8.27
2023-01-18T06:00:58.756Z,7.22
2023-01-18T06:03:29.201Z,8.45
2023-01-18T06:06:04.573Z,7.85
2023-01-18T06:08:35.098Z,6.40
2023-01-18T06:11:06.696Z,5.80
2023-01-18T06:13:36.999Z,7.30
2023-01-18T06:16:08.239Z,5.95
2023-01-18T06:18:39.690Z,5.57
2023-01-18T06:21:14.273Z,7.55
2023-01-18T06:23:44.588Z,7.70
2023-01-18T06:26:14.859Z,5.05
2023-01-18T06:28:45.047Z,6.00
2023-01-18T06:31:15.487Z,7.25
2023-01-18T06:33:45.618Z,8.00
2023-01-18T06:36:18.605Z,6.95
2023-01-18T06:38:48.918Z,6.03
2023-01-18T06:41:19.122Z,6.00
2023-01-18T06:43:49.349Z,5.97
2023-01-18T06:46:19.824Z,5.72
2023-01-18T06:48:50.456Z,6.00
2023-01-18T06:51:23.268Z,6.22
2023-01-18T06:53:53.669Z,6.38
2023-01-18T06:56:23.812Z,6.20
2023-01-18T06:58:56.009Z,5.32
2023-01-18T07:01:26.533Z,5.43
2023-01-18T07:03:57.580Z,6.28
2023-01-18T07:06:30.512Z,6.22
2023-01-18T07:09:01.727Z,6.35
2023-01-18T07:11:31.990Z,6.30
2023-01-18T07:14:02.168Z,5.07
2023-01-18T07:16:32.806Z,2.95
2023-01-18T07:19:04.151Z,2.10
2023-01-18T07:21:37.173Z,1.50
2023-01-18T07:24:08.383Z,1.57
2023-01-18T07:26:38.745Z,1.55
2023-01-18T07:29:09.243Z,1.10
2023-01-18T07:31:40.848Z,2.65
2023-01-18T07:34:12.156Z,2.33
2023-01-18T07:36:45.619Z,2.75
2023-01-18T07:39:15.793Z,2.53
2023-01-18T07:41:46.241Z,1.77
2023-01-18T07:44:16.824Z,1.98
2023-01-18T07:46:49.782Z,1.90
2023-01-18T07:49:21.997Z,2.00
2023-01-18T07:51:55.467Z,2.38
2023-01-18T07:54:26.481Z,2.07
2023-01-18T07:56:56.925Z,1.50
2023-01-18T07:59:31.111Z,1.63
2023-01-18T08:02:01.592Z,1.90
2023-01-18T08:04:31.878Z,2.40
2023-01-18T08:07:04.831Z,2.72
2023-01-18T08:09:36.433Z,2.35
2023-01-18T08:12:08.213Z,3.10
2023-01-18T08:14:38.902Z,2.22
2023-01-18T08:17:09.558Z,2.05
2023-01-18T08:19:40.132Z,2.42
2023-01-18T08:22:19.035Z,2.47
2023-01-18T08:24:49.232Z,3.17
2023-01-18T08:27:19.668Z,4.07
2023-01-18T08:29:49.822Z,3.70
2023-01-18T08:32:20.209Z,2.78
2023-01-18T08:34:50.718Z,2.00
2023-01-18T08:37:23.795Z,2.28
2023-01-18T08:39:54.331Z,1.40
2023-01-18T08:42:24.514Z,1.50
2023-01-18T08:44:57.250Z,1.55
2023-01-18T08:47:27.652Z,1.23
2023-01-18T08:49:58.382Z,1.60
2023-01-18T08:52:31.197Z,1.40
2023-01-18T08:55:02.009Z,1.25
2023-01-18T08:57:32.317Z,1.30
2023-01-18T09:00:04.610Z,1.70
2023-01-18T09:02:34.823Z,2.05
2023-01-18T09:05:07.605Z,1.70
2023-01-18T09:07:40.478Z,2.88
2023-01-18T09:10:12.193Z,2.20
2023-01-18T09:12:43.091Z,2.38
2023-01-18T09:15:13.830Z,2.17
2023-01-18T09:17:43.954Z,2.50
2023-01-18T09:20:17.718Z,1.98
2023-01-18T09:22:51.539Z,1.95
2023-01-18T09:25:22.142Z,2.15
2023-01-18T09:27:52.553Z,1.90
2023-01-18T09:30:23.338Z,2.10
2023-01-18T09:32:54.378Z,1.67
2023-01-18T09:35:25.197Z,2.05
2023-01-18T09:38:00.172Z,1.83
2023-01-18T09:40:47.598Z,2.00
2023-01-18T09:43:24.487Z,1.95
2023-01-18T09:45:56.346Z,2.00
2023-01-18T09:48:32.518Z,1.90
2023-01-18T09:51:08.005Z,1.70
2023-01-18T09:53:57.845Z,1.10
2023-01-18T09:56:32.982Z,1.50
2023-01-18T09:59:13.629Z,1.20
2023-01-18T10:01:44.736Z,1.90
2023-01-18T10:04:21.676Z,2.10
2023-01-18T10:06:57.200Z,1.30
2023-01-18T10:09:34.058Z,1.30
2023-01-18T10:12:06.647Z,1.40
2023-01-18T10:14:50.966Z,1.38
2023-01-18T10:17:24.449Z,1.23
2023-01-18T10:19:54.677Z,1.77
2023-01-18T10:22:28.438Z,1.90
2023-01-18T10:25:05.910Z,1.73
2023-01-18T10:28:10.190Z,1.70
2023-01-18T10:30:55.977Z,1.65
2023-01-18T10:33:29.480Z,1.73
2023-01-18T10:36:03.521Z,1.90
2023-01-18T10:38:34.447Z,1.67
2023-01-18T10:41:07.490Z,1.42
2023-01-18T10:43:39.052Z,1.60
2023-01-18T10:46:16.810Z,1.92
2023-01-18T10:48:50.166Z,2.17
2023-01-18T10:51:35.367Z,2.00
2023-01-18T10:54:25.299Z,1.95
2023-01-18T10:57:09.956Z,2.00
2023-01-18T10:59:42.939Z,2.38
2023-01-18T11:02:24.261Z,2.10
2023-01-18T11:05:00.290Z,1.55
2023-01-18T11:07:32.421Z,1.60
2023-01-18T11:10:09.770Z,1.73
2023-01-18T11:12:48.700Z,1.50
2023-01-18T11:15:31.836Z,1.33
2023-01-18T11:18:07.405Z,1.27
2023-01-18T11:20:43.748Z,1.45
2023-01-18T11:23:21.234Z,1.70
2023-01-18T11:25:59.218Z,1.48
2023-01-18T11:28:37.430Z,1.50
2023-01-18T11:31:15.612Z,1.60
2023-01-18T11:33:53.778Z,1.52
2023-01-18T11:36:36.805Z,1.42
2023-01-18T11:39:29.662Z,1.35
2023-01-18T11:42:21.958Z,1.25
2023-01-18T11:45:04.498Z,1.10
2023-01-18T11:47:43.762Z,1.30
2023-01-18T11:50:28.410Z,1.50
2023-01-18T11:53:06.453Z,1.30
2023-01-18T11:55:40.085Z,1.48
2023-01-18T11:58:19.913Z,1.45
2023-01-18T12:01:01.979Z,1.40
2023-01-18T12:03:50.608Z,1.60
2023-01-18T12:06:28.080Z,1.40
2023-01-18T12:09:11.540Z,2.03
2023-01-18T12:12:13.459Z,1.80
2023-01-18T12:14:58.879Z,1.50
2023-01-18T12:17:47.030Z,1.67
2023-01-18T12:20:29.158Z,1.42
2023-01-18T12:23:25.347Z,1.20
2023-01-18T12:26:18.978Z,2.03
2023-01-18T12:29:08.843Z,1.38
2023-01-18T12:31:57.647Z,1.40
2023-01-18T12:34:39.554Z,1.50
2023-01-18T12:37:32.814Z,1.35
2023-01-18T12:40:34.993Z,1.35
2023-01-18T12:43:15.764Z,1.33
2023-01-18T12:45:51.306Z,1.55
2023-01-18T12:48:25.703Z,1.52
2023-01-18T12:51:00.864Z,1.75
2023-01-18T12:53:40.490Z,2.03
2023-01-18T12:56:16.629Z,1.70
2023-01-18T12:58:47.273Z,1.60
2023-01-18T13:01:22.028Z,2.08
2023-01-18T13:03:56.566Z,1.60
2023-01-18T13:06:30.278Z,2.00
2023-01-18T13:11:41.713Z,2.20
2023-01-18T13:14:20.334Z,1.92
2023-01-18T13:16:58.632Z,2.25
2023-01-18T13:19:43.155Z,2.13
2023-01-18T13:22:26.396Z,2.50
2023-01-18T13:25:19.141Z,2.42
2023-01-18T13:28:00.832Z,2.40
2023-01-18T13:30:33.667Z,2.10
2023-01-18T13:33:17.185Z,2.53
2023-01-18T13:35:54.607Z,2.15
2023-01-18T13:38:41.013Z,1.95
2023-01-18T13:41:14.706Z,2.70
2023-01-18T13:44:04.575Z,1.90
2023-01-18T13:46:39.669Z,1.70
2023-01-18T13:49:38.185Z,1.80
2023-01-18T13:52:33.812Z,1.70
2023-01-18T13:55:31.344Z,1.50
2023-01-18T13:58:02.221Z,1.77
2023-01-18T14:00:35.320Z,2.00
2023-01-18T14:03:09.099Z,1.93
2023-01-18T14:05:48.778Z,1.80
2023-01-18T14:08:23.016Z,2.08
2023-01-18T14:11:01.287Z,2.45
2023-01-18T14:14:07.054Z,2.10
2023-01-18T14:16:40.460Z,2.28
2023-01-18T14:19:18.832Z,2.20
2023-01-18T14:22:08.991Z,2.10
2023-01-18T14:24:57.545Z,1.90
2023-01-18T14:27:36.645Z,2.38
2023-01-18T14:30:10.814Z,1.90
2023-01-18T14:32:44.100Z,1.77
2023-01-18T14:35:25.462Z,1.70
2023-01-18T14:38:17.483Z,2.35
2023-01-18T14:40:50.671Z,2.53
2023-01-18T14:43:29.491Z,2.30
2023-01-18T14:46:03.324Z,2.35
2023-01-18T14:48:37.582Z,2.08
2023-01-18T14:51:08.274Z,2.55
2023-01-18T14:53:48.108Z,3.45
2023-01-18T14:56:22.828Z,2.22
2023-01-18T14:59:01.549Z,2.72
2023-01-18T15:01:36.529Z,2.40
2023-01-18T15:04:08.586Z,2.45
2023-01-18T15:06:42.900Z,2.63
2023-01-18T15:09:15.610Z,2.78
2023-01-18T15:11:47.124Z,2.70
2023-01-18T15:14:23.498Z,2.75
2023-01-18T15:16:56.525Z,2.45
2023-01-18T15:19:34.711Z,2.58
2023-01-18T15:22:08.507Z,2.85
2023-01-18T15:24:41.372Z,3.13
2023-01-18T15:27:15.636Z,3.50
2023-01-18T15:29:54.749Z,3.60
2023-01-18T15:32:26.739Z,3.47
2023-01-18T15:34:58.910Z,3.75
2023-01-18T15:37:34.332Z,3.80
2023-01-18T15:40:07.074Z,2.90
2023-01-18T15:42:41.982Z,3.30
2023-01-18T15:45:22.440Z,3.83
2023-01-18T15:47:55.129Z,4.07
2023-01-18T15:50:28.807Z,4.30
2023-01-18T15:53:06.279Z,4.65
2023-01-18T15:55:40.900Z,4.68
2023-01-18T15:58:16.242Z,4.60
2023-01-18T16:00:57.789Z,4.18
2023-01-18T16:03:30.681Z,4.40
2023-01-18T16:06:13.255Z,3.80
2023-01-18T16:08:59.656Z,4.25
2023-01-18T16:11:33.369Z,4.07
2023-01-18T16:14:07.915Z,4.10
2023-01-18T16:16:44.889Z,4.03
2023-01-18T16:19:29.171Z,4.03
2023-01-18T16:24:39.009Z,3.85
2023-01-18T16:27:14.515Z,4.20
2023-01-18T16:29:49.889Z,5.43
2023-01-18T16:32:33.344Z,4.63
2023-01-18T16:35:06.350Z,5.33
2023-01-18T16:37:36.634Z,5.97
2023-01-18T16:40:09.599Z,5.32
2023-01-18T16:42:59.892Z,5.38
2023-01-18T16:45:31.261Z,6.40
2023-01-18T16:48:04.603Z,6.13
2023-01-18T16:50:35.079Z,5.85
2023-01-18T16:53:06.303Z,5.97
2023-01-18T16:55:36.685Z,4.90
2023-01-18T16:58:07.521Z,4.47
2023-01-18T17:00:48.460Z,4.38
2023-01-18T17:03:21.341Z,4.53
2023-01-18T17:05:51.863Z,4.07
2023-01-18T17:08:22.819Z,4.43
2023-01-18T17:10:54.790Z,5.07
2023-01-18T17:13:25.091Z,5.60
2023-01-18T17:15:56.220Z,5.53
2023-01-18T17:18:29.392Z,5.45
2023-01-18T17:20:59.851Z,6.85
2023-01-18T17:23:30.066Z,7.22
2023-01-18T17:26:01.596Z,9.55
2023-01-18T17:28:32.564Z,11.95
2023-01-18T17:31:04.379Z,12.15
2023-01-18T17:33:39.327Z,13.50
2023-01-18T17:36:10.958Z,13.70
2023-01-18T17:38:41.199Z,13.93
2023-01-18T17:41:22.959Z,13.77
2023-01-18T17:43:57.880Z,14.05
2023-01-18T17:46:28.898Z,11.55
2023-01-18T17:49:02.872Z,13.23
2023-01-18T17:51:35.501Z,13.88
2023-01-18T17:54:13.158Z,13.27
2023-01-18T17:56:50.925Z,15.35
2023-01-18T17:59:21.576Z,15.07
2023-01-18T18:01:52.261Z,14.48
2023-01-18T18:04:27.907Z,15.48
2023-01-18T18:07:01.280Z,12.88
2023-01-18T18:09:32.185Z,9.27
2023-01-18T18:12:02.738Z,8.68
2023-01-18T18:14:37.539Z,8.93
2023-01-18T18:17:11.712Z,7.88
2023-01-18T18:19:44.770Z,7.43
2023-01-18T18:22:15.321Z,8.93
2023-01-18T18:24:45.786Z,8.05
2023-01-18T18:27:17.004Z,7.53
2023-01-18T18:29:48.571Z,7.68
2023-01-18T18:32:18.902Z,7.90
2023-01-18T18:34:51.906Z,7.30
2023-01-18T18:37:23.780Z,8.27
2023-01-18T18:39:54.238Z,7.55
2023-01-18T18:42:24.888Z,8.05
2023-01-18T18:44:56.970Z,9.18
2023-01-18T18:47:27.455Z,9.32
2023-01-18T18:50:00.988Z,9.90
2023-01-18T18:52:31.795Z,8.57
2023-01-18T18:55:05.375Z,9.57
2023-01-18T18:57:39.455Z,9.73
2023-01-18T19:00:15.559Z,10.82
2023-01-18T19:02:46.355Z,13.60
2023-01-18T19:05:19.659Z,13.65
2023-01-18T19:07:52.041Z,14.00
2023-01-18T19:10:24.312Z,14.85
2023-01-18T19:12:54.874Z,13.38
2023-01-18T19:15:25.877Z,13.23
2023-01-18T19:17:58.237Z,14.35
2023-01-18T19:20:33.077Z,15.05
2023-01-18T19:23:03.861Z,13.40
2023-01-18T19:25:34.364Z,13.40
2023-01-18T19:28:05.429Z,15.70
2023-01-18T19:30:36.609Z,13.48
2023-01-18T19:33:08.045Z,9.45
2023-01-18T19:35:43.957Z,8.40
2023-01-18T19:38:15.201Z,7.10
2023-01-18T19:40:46.050Z,6.95
2023-01-18T19:43:20.917Z,6.97
2023-01-18T19:45:51.434Z,7.75
2023-01-18T19:48:23.014Z,7.70
2023-01-18T19:50:58.495Z,8.35
2023-01-18T19:53:31.151Z,7.57
2023-01-18T19:56:07.349Z,7.03
2023-01-18T19:58:41.428Z,7.32
2023-01-18T20:01:23.097Z,9.32
2023-01-18T20:04:01.218Z,11.15
2023-01-18T20:06:34.327Z,10.50
2023-01-18T20:09:12.680Z,11.55
2023-01-18T20:11:48.857Z,16.10
2023-01-18T20:14:19.850Z,16.70
2023-01-18T20:16:50.172Z,15.98
2023-01-18T20:19:23.574Z,17.02
2023-01-18T20:21:58.180Z,17.08
2023-01-18T20:24:28.795Z,15.85
2023-01-18T20:27:14.850Z,14.10
2023-01-18T20:29:48.209Z,12.50
2023-01-18T20:32:19.109Z,12.60
2023-01-18T20:34:49.870Z,11.38
2023-01-18T20:37:23.513Z,12.63
2023-01-18T20:39:56.901Z,12.73
2023-01-18T20:42:27.498Z,11.88
2023-01-18T20:45:00.733Z,12.38
2023-01-18T20:47:31.295Z,10.05
2023-01-18T20:50:02.026Z,11.13
2023-01-18T20:52:43.035Z,9.05
2023-01-18T20:55:15.031Z,9.30
2023-01-18T20:57:45.563Z,8.32
2023-01-18T21:00:19.136Z,8.15
2023-01-18T21:02:50.758Z,8.23
2023-01-18T21:05:21.863Z,9.02
2023-01-18T21:07:54.712Z,9.35
2023-01-18T21:10:38.744Z,8.05
2023-01-18T21:15:41.836Z,5.65
2023-01-18T21:18:12.656Z,5.53
2023-01-18T21:20:43.127Z,6.32
2023-01-18T21:23:17.000Z,6.75
2023-01-18T21:28:22.859Z,6.43
2023-01-18T21:30:54.079Z,7.30
2023-01-18T21:33:25.070Z,5.85
2023-01-18T21:35:55.654Z,7.20
2023-01-18T21:38:29.963Z,6.45
2023-01-18T21:41:20.141Z,6.25
2023-01-18T21:44:03.017Z,5.55
2023-01-18T21:46:33.322Z,4.20
2023-01-18T21:49:05.567Z,4.80
2023-01-18T21:51:48.529Z,5.03
2023-01-18T21:54:22.646Z,4.95
2023-01-18T21:56:53.038Z,5.82
2023-01-18T21:59:23.351Z,5.45
2023-01-18T22:01:54.267Z,4.88
2023-01-18T22:04:37.212Z,4.53
2023-01-18T22:07:07.518Z,5.03
2023-01-18T22:09:42.697Z,4.88
2023-01-18T22:12:13.051Z,4.45
2023-01-18T22:14:43.269Z,5.15
2023-01-18T22:17:13.438Z,7.30
2023-01-18T22:19:44.103Z,4.90
2023-01-18T22:22:14.750Z,6.72
2023-01-18T22:24:47.483Z,7.38
2023-01-18T22:27:17.748Z,6.60
2023-01-18T22:29:47.975Z,6.55
2023-01-18T22:32:18.259Z,5.90
2023-01-18T22:34:48.411Z,5.28
2023-01-18T22:37:20.202Z,5.78
2023-01-18T22:39:53.054Z,5.90
2023-01-18T22:42:23.412Z,5.85
2023-01-18T22:44:59.930Z,5.07
2023-01-18T22:47:30.624Z,4.75
2023-01-18T22:50:01.203Z,4.70
2023-01-18T22:52:31.501Z,3.78
2023-01-18T22:55:04.311Z,3.78
2023-01-18T22:57:34.682Z,3.33
2023-01-18T23:00:05.284Z,3.13
2023-01-18T23:02:36.242Z,3.95
2023-01-18T23:05:08.889Z,3.30
2023-01-18T23:07:39.108Z,3.65
2023-01-18T23:10:13.069Z,2.88
2023-01-18T23:12:43.305Z,2.20
2023-01-18T23:15:27.446Z,2.70
2023-01-18T23:17:58.153Z,3.45
2023-01-18T23:20:28.544Z,2.80
2023-01-18T23:22:58.939Z,3.10
2023-01-18T23:25:32.346Z,3.38
2023-01-18T23:28:03.451Z,4.85
2023-01-18T23:30:33.855Z,5.03
2023-01-18T23:33:04.549Z,4.90
2023-01-18T23:35:37.561Z,4.63
2023-01-18T23:38:10.155Z,4.07
2023-01-18T23:40:55.731Z,4.18
2023-01-18T23:43:38.502Z,4.35
2023-01-18T23:46:21.321Z,3.00
2023-01-18T23:49:04.093Z,3.75
2023-01-18T23:51:49.509Z,3.08
2023-01-18T23:54:19.910Z,3.88
2023-01-18T23:56:52.759Z,2.90
2023-01-18T23:59:23.585Z,4.95
